Time;durP1;ratioP1;P1;durP2;ratioP2;P2;SDS_P1;SDS_P2;PMS_P1;PMS_P2;Temp;Humidity;BMP_temperature;BMP_pressure;BME280_temperature;BME280_humidity;BME280_pressure;Samples;Min_cycle;Max_cycle;Signal;HPM_P1;HPM_P2
2022/07/01 00:01:57;;;;;;;;;;;15.90;66.10;;;;;;5047781;28;20461;-77
2022/07/01 00:04:26;;;;;;;0.00;0.00;;;16.00;66.20;;;;;;5048535;28;19935;-78
2022/07/01 00:06:56;;;;;;;0.00;0.00;;;15.90;66.10;;;;;;5047097;28;20055;-78
2022/07/01 00:09:22;;;;;;;0.00;0.00;;;16.00;66.10;;;;;;5047281;28;20040;-79
2022/07/01 00:11:48;;;;;;;0.00;0.00;;;15.90;66.00;;;;;;5047059;28;20037;-78
2022/07/01 00:14:14;;;;;;;0.00;0.00;;;15.90;66.00;;;;;;5048391;28;20099;-78
2022/07/01 00:16:39;;;;;;;0.00;0.00;;;15.90;66.00;;;;;;5047213;28;20099;-79
2022/07/01 00:19:05;;;;;;;0.00;0.00;;;15.90;66.10;;;;;;5030441;28;20129;-79
2022/07/01 00:21:32;;;;;;;0.00;0.00;;;15.90;66.10;;;;;;5047197;28;20067;-78
2022/07/01 00:23:57;;;;;;;0.00;0.00;;;15.90;66.10;;;;;;5048387;28;20396;-78
2022/07/01 00:26:24;;;;;;;0.00;0.00;;;15.80;66.10;;;;;;5048507;28;20036;-78
2022/07/01 00:28:50;;;;;;;0.00;0.00;;;15.80;66.10;;;;;;5047040;28;20048;-79
2022/07/01 00:31:16;;;;;;;0.00;0.00;;;15.80;66.10;;;;;;5046967;28;20073;-78
2022/07/01 00:33:41;;;;;;;0.00;0.00;;;15.80;66.10;;;;;;5047311;28;20591;-78
2022/07/01 00:36:07;;;;;;;0.00;0.00;;;15.80;66.10;;;;;;5046800;28;20053;-77
2022/07/01 00:38:33;;;;;;;0.00;0.00;;;15.80;66.10;;;;;;5046937;28;20025;-78
2022/07/01 00:40:58;;;;;;;0.00;0.00;;;15.80;66.10;;;;;;5048085;28;20479;-77
2022/07/01 00:43:25;;;;;;;0.00;0.00;;;15.80;66.10;;;;;;5046674;28;20033;-77
2022/07/01 00:45:51;;;;;;;0.00;0.00;;;15.80;66.10;;;;;;5048079;28;20382;-78
2022/07/01 00:48:19;;;;;;;0.00;0.00;;;15.70;66.00;;;;;;5046588;28;20033;-77
2022/07/01 00:50:45;;;;;;;0.00;0.00;;;15.70;66.10;;;;;;5047697;28;20029;-78
2022/07/01 00:53:13;;;;;;;0.00;0.00;;;15.80;66.20;;;;;;5047528;28;20091;-78
2022/07/01 00:55:38;;;;;;;0.00;0.00;;;15.70;66.10;;;;;;5046348;28;20530;-77
2022/07/01 00:58:04;;;;;;;0.00;0.00;;;15.80;66.10;;;;;;5046626;28;20112;-78
2022/07/01 01:00:31;;;;;;;0.00;0.00;;;15.70;66.10;;;;;;5046348;28;20392;-77
2022/07/01 01:02:56;;;;;;;0.00;0.00;;;15.80;66.20;;;;;;5046021;28;20036;-79
2022/07/01 01:05:22;;;;;;;0.00;0.00;;;15.70;66.10;;;;;;5046331;28;20037;-78
2022/07/01 01:07:52;;;;;;;0.00;0.00;;;15.70;66.10;;;;;;5046674;28;20061;-79
2022/07/01 01:10:18;;;;;;;0.00;0.00;;;15.70;66.10;;;;;;5030018;28;20422;-78
2022/07/01 01:12:45;;;;;;;0.00;0.00;;;15.70;66.10;;;;;;5047584;28;20478;-79
2022/07/01 01:15:16;;;;;;;0.00;0.00;;;15.70;66.20;;;;;;5029951;28;20505;-78
2022/07/01 01:17:42;;;;;;;0.00;0.00;;;15.70;66.20;;;;;;5030723;28;20060;-79
2022/07/01 01:20:08;;;;;;;0.00;0.00;;;15.60;66.20;;;;;;5029716;28;20130;-77
2022/07/01 01:22:34;;;;;;;;;;;15.60;66.20;;;;;;5030134;28;20041;-79
2022/07/01 01:25:00;;;;;;;0.00;0.00;;;15.60;66.20;;;;;;5046152;28;19999;-77
2022/07/01 01:27:25;;;;;;;0.00;0.00;;;15.60;66.20;;;;;;5046342;28;20498;-77
2022/07/01 01:29:51;;;;;;;0.00;0.00;;;15.70;66.80;;;;;;5046216;28;20033;-79
2022/07/01 01:32:17;;;;;;;0.00;0.00;;;15.70;66.30;;;;;;5046032;28;20391;-78
2022/07/01 01:34:42;;;;;;;0.00;0.00;;;15.70;66.30;;;;;;5045824;28;20029;-78
2022/07/01 01:37:09;;;;;;;0.00;0.00;;;15.70;66.30;;;;;;5045905;28;20028;-77
2022/07/01 01:39:37;;;;;;;0.00;0.00;;;15.70;66.30;;;;;;5047226;28;20025;-78
2022/07/01 01:42:05;;;;;;;0.00;0.00;;;15.70;66.30;;;;;;5045949;28;20437;-77
2022/07/01 01:44:31;;;;;;;0.00;0.00;;;15.80;66.30;;;;;;5047144;28;20437;-77
2022/07/01 01:46:57;;;;;;;0.00;0.00;;;15.80;66.20;;;;;;5046105;28;20536;-78
2022/07/01 01:49:23;;;;;;;0.00;0.00;;;15.80;66.20;;;;;;5046037;28;20121;-78
2022/07/01 01:51:48;;;;;;;0.00;0.00;;;15.80;66.20;;;;;;5029428;28;20033;-77
2022/07/01 01:54:14;;;;;;;0.00;0.00;;;15.80;66.30;;;;;;5047156;28;20037;-79
2022/07/01 01:56:40;;;;;;;0.00;0.00;;;15.80;66.30;;;;;;5047459;28;20032;-79
2022/07/01 01:59:06;;;;;;;0.00;0.00;;;15.80;66.20;;;;;;5046271;28;20033;-78
2022/07/01 02:01:32;;;;;;;0.00;0.00;;;15.80;66.30;;;;;;5029991;28;20168;-78
2022/07/01 02:03:58;;;;;;;0.00;0.00;;;15.70;66.30;;;;;;5046289;28;20032;-77
2022/07/01 02:06:24;;;;;;;0.00;0.00;;;15.70;66.70;;;;;;5047617;28;20033;-79
2022/07/01 02:08:50;;;;;;;0.00;0.00;;;15.70;66.80;;;;;;5047191;28;20033;-79
2022/07/01 02:11:16;;;;;;;0.00;0.00;;;15.70;66.20;;;;;;5046116;28;20036;-78
2022/07/01 02:13:44;;;;;;;0.00;0.00;;;15.70;66.30;;;;;;5049574;28;20017;-78
2022/07/01 02:16:10;;;;;;;0.00;0.00;;;15.70;66.30;;;;;;5017255;28;20123;-77
2022/07/01 02:18:35;;;;;;;0.00;0.00;;;15.70;66.30;;;;;;5049715;28;20188;-79
2022/07/01 02:21:01;;;;;;;0.00;0.00;;;15.70;66.40;;;;;;5050731;28;20442;-78
2022/07/01 02:23:29;;;;;;;0.00;0.00;;;15.70;66.30;;;;;;5050666;28;20123;-78
2022/07/01 02:25:55;;;;;;;0.00;0.00;;;15.70;66.40;;;;;;5050906;28;20442;-78
2022/07/01 02:28:20;;;;;;;;;;;15.70;66.80;;;;;;5049710;28;20025;-77
2022/07/01 02:30:46;;;;;;;0.00;0.00;;;15.70;66.30;;;;;;5049099;28;19970;-77
2022/07/01 02:33:12;;;;;;;0.00;0.00;;;15.70;66.30;;;;;;5015994;28;20483;-78
2022/07/01 02:35:40;;;;;;;0.00;0.00;;;15.80;66.30;;;;;;5015854;28;20045;-77
2022/07/01 02:38:07;;;;;;;0.00;0.00;;;15.80;66.30;;;;;;5050407;28;20025;-78
2022/07/01 02:40:34;;;;;;;0.00;0.00;;;15.70;66.30;;;;;;5050333;28;20029;-77
2022/07/01 02:43:00;;;;;;;0.00;0.00;;;15.80;66.40;;;;;;5048840;28;20029;-78
2022/07/01 02:45:26;;;;;;;0.00;0.00;;;15.80;66.30;;;;;;5048806;28;20039;-78
2022/07/01 02:47:52;;;;;;;0.00;0.00;;;15.70;66.30;;;;;;5050067;28;20032;-79
2022/07/01 02:50:19;;;;;;;0.00;0.00;;;15.70;66.30;;;;;;5050031;28;20040;-78
2022/07/01 02:52:45;;;;;;;0.00;0.00;;;15.70;66.30;;;;;;5048643;28;20395;-79
2022/07/01 02:55:13;;;;;;;0.00;0.00;;;15.60;66.30;;;;;;5048594;28;20112;-79
2022/07/01 02:57:40;;;;;;;0.00;0.00;;;15.70;66.50;;;;;;5049989;28;20025;-78
2022/07/01 03:00:09;;;;;;;0.00;0.00;;;15.70;66.50;;;;;;5049816;28;20506;-78
2022/07/01 03:02:35;;;;;;;0.00;0.00;;;15.70;66.50;;;;;;5048477;28;20405;-79
2022/07/01 03:05:01;;;;;;;0.00;0.00;;;15.60;66.40;;;;;;5049693;28;20032;-79
2022/07/01 03:07:27;;;;;;;0.00;0.00;;;15.60;66.40;;;;;;5049730;28;20111;-77
2022/07/01 03:09:53;;;;;;;0.00;0.00;;;15.60;66.40;;;;;;5048798;28;20108;-78
2022/07/01 03:12:24;;;;;;;0.00;0.00;;;15.70;66.50;;;;;;5048188;28;20095;-78
2022/07/01 03:14:54;;;;;;;0.00;0.00;;;15.70;66.50;;;;;;5048232;28;20040;-78
2022/07/01 03:17:20;;;;;;;0.00;0.00;;;15.60;66.40;;;;;;5050072;28;20324;-78
2022/07/01 03:19:46;;;;;;;0.00;0.00;;;15.60;66.40;;;;;;5048035;28;20071;-77
2022/07/01 03:22:12;;;;;;;0.00;0.00;;;15.60;66.40;;;;;;5048081;28;20116;-78
2022/07/01 03:24:37;;;;;;;0.00;0.00;;;15.60;66.40;;;;;;5047109;28;20040;-77
2022/07/01 03:27:03;;;;;;;0.00;0.00;;;15.60;66.50;;;;;;5031472;28;20037;-79
2022/07/01 03:29:29;;;;;;;0.20;0.10;;;15.60;66.50;;;;;;5047862;28;20314;-77
2022/07/01 03:31:55;;;;;;;0.00;0.00;;;15.60;66.50;;;;;;5047959;28;20033;-77
2022/07/01 03:34:21;;;;;;;0.00;0.00;;;15.60;66.60;;;;;;5049242;28;20051;-77
2022/07/01 03:36:47;;;;;;;0.00;0.00;;;15.60;66.60;;;;;;5031672;28;20055;-78
2022/07/01 03:39:13;;;;;;;0.00;0.00;;;15.60;66.60;;;;;;5048302;28;20036;-77
2022/07/01 03:41:39;;;;;;;0.00;0.00;;;15.60;66.50;;;;;;5048263;28;20375;-77
2022/07/01 03:44:05;;;;;;;0.00;0.00;;;15.70;66.50;;;;;;5047933;28;20032;-78
2022/07/01 03:46:32;;;;;;;0.00;0.00;;;15.70;66.50;;;;;;5049235;28;20382;-79
2022/07/01 03:48:58;;;;;;;0.00;0.00;;;15.60;66.40;;;;;;5047822;28;20120;-78
2022/07/01 03:51:24;;;;;;;0.00;0.00;;;15.60;66.50;;;;;;5048758;28;20114;-78
2022/07/01 03:56:33;;;;;;;0.00;0.00;;;15.60;66.60;;;;;;5049020;28;20083;-79
2022/07/01 03:58:59;;;;;;;0.00;0.00;;;15.60;66.50;;;;;;5048792;28;20052;-78
2022/07/01 04:01:25;;;;;;;0.00;0.00;;;15.60;66.60;;;;;;5047500;28;20064;-78
2022/07/01 04:03:50;;;;;;;0.00;0.00;;;15.50;66.50;;;;;;5030808;28;20025;-79
2022/07/01 04:06:17;;;;;;;0.00;0.00;;;15.50;66.50;;;;;;5048684;28;20029;-77
2022/07/01 04:08:43;;;;;;;0.00;0.00;;;15.50;66.50;;;;;;5047449;28;20484;-78
2022/07/01 04:11:09;;;;;;;0.00;0.00;;;15.50;66.60;;;;;;5047134;28;20399;-78
2022/07/01 04:13:38;;;;;;;0.00;0.00;;;15.50;66.60;;;;;;5047311;28;20032;-78
2022/07/01 04:16:04;;;;;;;0.00;0.00;;;15.50;66.60;;;;;;5030437;28;20058;-78
2022/07/01 04:18:30;;;;;;;0.00;0.00;;;15.50;66.60;;;;;;5047171;28;20029;-78
2022/07/01 04:23:40;;;;;;;0.00;0.00;;;15.50;66.60;;;;;;5048653;28;20040;-77
2022/07/01 04:26:06;;;;;;;0.00;0.00;;;15.50;66.60;;;;;;5046966;28;20415;-78
2022/07/01 04:28:32;;;;;;;0.00;0.00;;;15.50;66.60;;;;;;5030241;28;20475;-78
2022/07/01 04:30:58;;;;;;;0.00;0.00;;;15.50;66.70;;;;;;5030398;28;20467;-78
2022/07/01 04:33:24;;;;;;;0.00;0.00;;;15.50;66.70;;;;;;5048191;28;20035;-76
2022/07/01 04:35:49;;;;;;;;;;;15.50;66.70;;;;;;5046843;28;20192;-78
2022/07/01 04:38:15;;;;;;;0.00;0.00;;;15.50;67.10;;;;;;5063426;28;19999;-78
2022/07/01 04:41:58;;;;;;;0.00;0.00;;;15.50;66.50;;;;;;5030406;28;20037;-78
2022/07/01 04:43:26;;;;;;;0.00;0.00;;;15.50;66.60;;;;;;5047872;28;20032;-78
2022/07/01 04:45:53;;;;;;;0.00;0.00;;;15.40;66.60;;;;;;5046609;28;20040;-79
2022/07/01 04:48:19;;;;;;;0.00;0.00;;;15.40;66.60;;;;;;5046708;28;20055;-77
2022/07/01 04:50:44;;;;;;;0.00;0.00;;;15.40;66.70;;;;;;5047649;28;20037;-78
2022/07/01 04:53:12;;;;;;;0.00;0.00;;;15.40;66.60;;;;;;5029926;28;20108;-79
2022/07/01 04:55:38;;;;;;;0.00;0.00;;;15.40;66.70;;;;;;5047694;28;20140;-78
2022/07/01 04:58:03;;;;;;;0.00;0.00;;;15.40;66.70;;;;;;5029968;28;20096;-79
2022/07/01 05:00:30;;;;;;;0.00;0.00;;;15.40;66.70;;;;;;5030031;28;20513;-78
2022/07/01 05:02:55;;;;;;;0.00;0.00;;;15.40;66.70;;;;;;5046423;28;20111;-78
2022/07/01 05:05:21;;;;;;;0.00;0.00;;;15.40;66.70;;;;;;5046274;28;20132;-78
2022/07/01 05:07:47;;;;;;;0.00;0.00;;;15.40;66.70;;;;;;5047619;28;20059;-79
2022/07/01 05:10:13;;;;;;;0.00;0.00;;;15.40;66.70;;;;;;5047715;28;20498;-77
2022/07/01 05:12:39;;;;;;;0.00;0.00;;;15.40;66.70;;;;;;5048064;28;20480;-79
2022/07/01 05:15:06;;;;;;;0.00;0.00;;;15.40;66.60;;;;;;5029821;28;20029;-77
2022/07/01 05:23:00;;;;;;;0.00;0.00;;;15.30;66.60;;;;;;5047949;28;20086;-78
2022/07/01 05:25:26;;;;;;;0.00;0.00;;;15.30;66.70;;;;;;5030420;28;20116;-78
2022/07/01 05:27:52;;;;;;;0.10;0.10;;;15.20;66.70;;;;;;5029961;28;20049;-78
2022/07/01 05:30:18;;;;;;;;;;;15.20;66.70;;;;;;5030569;28;20487;-80
2022/07/01 05:32:44;;;;;;;0.00;0.00;;;15.20;66.70;;;;;;5046532;28;19916;-78
2022/07/01 05:35:09;;;;;;;0.00;0.00;;;15.20;66.70;;;;;;5047068;28;20138;-79
2022/07/01 05:37:35;;;;;;;0.00;0.00;;;15.20;66.70;;;;;;5047665;28;20040;-79
2022/07/01 05:40:00;;;;;;;0.00;0.00;;;15.20;66.80;;;;;;5046195;28;20523;-76
2022/07/01 05:42:26;;;;;;;0.00;0.00;;;15.30;66.80;;;;;;5047333;28;20108;-78
2022/07/01 05:44:52;;;;;;;0.00;0.00;;;15.30;66.80;;;;;;5047010;28;20071;-78
2022/07/01 05:47:17;;;;;;;0.00;0.00;;;15.30;66.80;;;;;;5029846;28;20040;-79
2022/07/01 05:49:43;;;;;;;0.00;0.00;;;15.30;66.80;;;;;;5016568;28;20029;-78
2022/07/01 05:52:09;;;;;;;0.00;0.00;;;15.30;66.80;;;;;;5033162;28;20076;-78
2022/07/01 05:54:35;;;;;;;0.00;0.00;;;15.40;66.90;;;;;;5050914;28;20426;-79
2022/07/01 05:57:00;;;;;;;0.00;0.00;;;15.40;66.80;;;;;;5049948;28;20036;-78
2022/07/01 05:59:26;;;;;;;0.00;0.00;;;15.40;66.80;;;;;;5050997;28;20036;-78
2022/07/01 06:01:52;;;;;;;0.00;0.00;;;15.50;66.80;;;;;;5051267;28;20107;-78
2022/07/01 06:04:17;;;;;;;0.00;0.00;;;15.50;66.90;;;;;;5049490;28;20475;-78
2022/07/01 06:06:43;;;;;;;0.00;0.00;;;15.50;66.90;;;;;;5032944;28;20060;-77
2022/07/01 06:09:09;;;;;;;0.00;0.00;;;15.50;66.90;;;;;;5049580;28;20036;-78
2022/07/01 06:11:35;;;;;;;0.00;0.00;;;15.50;66.90;;;;;;5049653;28;20108;-78
2022/07/01 06:14:00;;;;;;;0.13;0.13;;;15.60;66.90;;;;;;5032868;28;20459;-78
2022/07/01 06:16:26;;;;;;;0.00;0.00;;;15.60;66.90;;;;;;5032887;28;20039;-79
2022/07/01 06:18:52;;;;;;;0.00;0.00;;;15.60;66.90;;;;;;5032962;28;20025;-76
2022/07/01 06:21:17;;;;;;;0.03;0.03;;;15.60;66.90;;;;;;5032773;28;20403;-78
2022/07/01 06:23:45;;;;;;;0.10;0.10;;;15.60;66.90;;;;;;5050509;28;20029;-77
2022/07/01 06:26:12;;;;;;;0.00;0.00;;;15.60;66.80;;;;;;5050491;28;20037;-79
2022/07/01 06:28:38;;;;;;;0.00;0.00;;;15.60;66.80;;;;;;5048913;28;20399;-78
2022/07/01 06:31:03;;;;;;;0.00;0.00;;;15.60;66.80;;;;;;5015674;28;20029;-78
2022/07/01 06:33:30;;;;;;;0.08;0.08;;;15.50;66.80;;;;;;5048971;28;20033;-78
2022/07/01 06:35:56;;;;;;;0.00;0.00;;;15.60;66.90;;;;;;5048886;28;20045;-78
2022/07/01 06:38:22;;;;;;;;;;;15.60;67.00;;;;;;5032525;28;20036;-79
2022/07/01 06:41:26;;;;;;;0.10;0.10;;;15.60;67.00;;;;;;5048831;28;19915;-79
2022/07/01 06:43:35;;;;;;;0.00;0.00;;;15.70;67.00;;;;;;5035000;28;20071;-79
2022/07/01 06:46:01;;;;;;;0.10;0.10;;;15.80;67.00;;;;;;5049391;28;20055;-79
2022/07/01 06:48:27;;;;;;;0.00;0.00;;;15.80;67.00;;;;;;5050038;28;20033;-80
2022/07/01 06:50:53;;;;;;;0.00;0.00;;;15.90;67.00;;;;;;5031876;28;20098;-79
2022/07/01 06:53:18;;;;;;;0.10;0.10;;;16.00;66.90;;;;;;5050020;28;20029;-78
2022/07/01 06:55:44;;;;;;;0.10;0.10;;;16.00;66.90;;;;;;5048368;28;20029;-79
2022/07/01 06:58:10;;;;;;;0.00;0.00;;;16.00;67.00;;;;;;5048234;28;20495;-79
2022/07/01 07:00:36;;;;;;;0.00;0.00;;;16.20;67.10;;;;;;5013843;28;20021;-77
2022/07/01 07:03:02;;;;;;;;;;;16.30;67.10;;;;;;5016072;28;20457;-79
2022/07/01 07:05:30;;;;;;;0.00;0.00;;;16.40;67.00;;;;;;5048244;28;19913;-78
2022/07/01 07:07:57;;;;;;;0.00;0.00;;;16.60;67.10;;;;;;5049784;28;20055;-79
2022/07/01 07:10:23;;;;;;;0.00;0.00;;;16.90;67.20;;;;;;5048137;28;20033;-79
2022/07/01 07:12:48;;;;;;;0.00;0.00;;;17.30;67.20;;;;;;5049496;28;20502;-78
2022/07/01 07:15:15;;;;;;;0.10;0.10;;;17.60;67.00;;;;;;5049421;28;20037;-78
2022/07/01 07:17:41;;;;;;;0.00;0.00;;;17.90;66.80;;;;;;5049644;28;20383;-79
2022/07/01 07:20:07;;;;;;;;;;;18.10;66.50;;;;;;5049865;28;20099;-78
2022/07/01 07:22:33;;;;;;;0.00;0.00;;;18.10;66.20;;;;;;5049459;28;19909;-79
2022/07/01 07:24:58;;;;;;;0.00;0.00;;;18.10;66.20;;;;;;5049753;28;20033;-78
2022/07/01 07:27:24;;;;;;;0.00;0.00;;;18.10;66.30;;;;;;5047793;28;20045;-78
2022/07/01 07:29:50;;;;;;;0.00;0.00;;;18.10;66.40;;;;;;5047618;28;20057;-78
2022/07/01 07:32:15;;;;;;;0.00;0.00;;;18.10;66.40;;;;;;5047935;28;20546;-79
2022/07/01 07:34:41;;;;;;;0.00;0.00;;;18.10;66.60;;;;;;5048815;28;20036;-78
2022/07/01 07:37:07;;;;;;;0.00;0.00;;;18.20;66.60;;;;;;5047898;28;20025;-78
2022/07/01 07:39:33;;;;;;;0.00;0.00;;;18.30;66.50;;;;;;5030758;28;20029;-79
2022/07/01 07:41:59;;;;;;;0.00;0.00;;;18.30;66.40;;;;;;5047478;28;20043;-78
2022/07/01 07:44:25;;;;;;;;;;;18.30;66.40;;;;;;5047770;28;20029;-78
2022/07/01 07:46:50;;;;;;;0.00;0.00;;;18.20;66.30;;;;;;5049045;28;19904;-79
2022/07/01 07:49:16;;;;;;;0.00;0.00;;;18.10;66.30;;;;;;5031062;28;20040;-77
2022/07/01 07:51:42;;;;;;;0.00;0.00;;;18.10;66.60;;;;;;5047252;28;20036;-77
2022/07/01 07:54:08;;;;;;;0.00;0.00;;;18.10;66.80;;;;;;5046944;28;20037;-77
2022/07/01 07:56:33;;;;;;;0.00;0.00;;;18.10;66.70;;;;;;5047167;28;20786;-79
2022/07/01 07:58:59;;;;;;;0.00;0.00;;;18.10;66.80;;;;;;5048391;28;20475;-78
2022/07/01 08:01:25;;;;;;;0.00;0.00;;;18.20;66.90;;;;;;5047349;28;20029;-78
2022/07/01 08:03:51;;;;;;;0.00;0.00;;;18.30;66.90;;;;;;5047370;28;20387;-79
2022/07/01 08:06:17;;;;;;;0.00;0.00;;;18.90;67.30;;;;;;5048498;28;20147;-79
2022/07/01 08:08:42;;;;;;;0.00;0.00;;;19.40;66.70;;;;;;5048711;28;20494;-78
2022/07/01 08:11:08;;;;;;;0.00;0.00;;;19.60;66.30;;;;;;5030211;28;20540;-78
2022/07/01 08:13:34;;;;;;;0.00;0.00;;;19.70;66.20;;;;;;5030087;28;20033;-78
2022/07/01 08:16:00;;;;;;;0.00;0.00;;;19.70;66.20;;;;;;5046754;28;20463;-78
2022/07/01 08:18:26;;;;;;;0.00;0.00;;;19.70;66.00;;;;;;5048395;28;20405;-77
2022/07/01 08:20:52;;;;;;;0.00;0.00;;;19.70;66.20;;;;;;5047771;28;20025;-78
2022/07/01 08:23:19;;;;;;;0.00;0.00;;;20.30;66.80;;;;;;5048671;28;20060;-77
2022/07/01 08:25:46;;;;;;;0.00;0.00;;;20.60;65.80;;;;;;5047872;28;20031;-77
2022/07/01 08:28:12;;;;;;;0.00;0.00;;;20.50;65.50;;;;;;5048255;28;20430;-77
2022/07/01 08:30:38;;;;;;;0.00;0.00;;;20.30;65.70;;;;;;5047720;28;20282;-78
2022/07/01 08:33:04;;;;;;;0.00;0.00;;;20.50;66.50;;;;;;5046091;28;20071;-78
2022/07/01 08:35:30;;;;;;;;;;;21.00;66.40;;;;;;5046445;28;20080;-78
2022/07/01 08:37:56;;;;;;;0.00;0.00;;;21.20;66.10;;;;;;5048188;28;20405;-77
2022/07/01 08:40:28;;;;;;;;;;;21.30;65.90;;;;;;5046897;28;20047;-78
2022/07/01 08:43:02;;;;;;;0.00;0.00;;;21.50;66.10;;;;;;5062962;28;20427;-77
2022/07/01 08:45:30;;;;;;;0.00;0.00;;;21.80;66.40;;;;;;5046228;28;20024;-77
2022/07/01 08:48:00;;;;;;;0.00;0.00;;;22.20;66.30;;;;;;5047224;28;20037;-78
2022/07/01 08:50:30;;;;;;;0.00;0.00;;;22.40;66.30;;;;;;5047397;28;20017;-79
2022/07/01 08:52:56;;;;;;;0.00;0.00;;;22.90;66.30;;;;;;5030131;28;20500;-78
2022/07/01 08:55:23;;;;;;;0.00;0.00;;;23.30;66.00;;;;;;5045837;28;20033;-79
2022/07/01 08:57:50;;;;;;;0.00;0.00;;;23.60;65.60;;;;;;5046103;28;20025;-78
2022/07/01 09:00:17;;;;;;;0.00;0.00;;;23.50;65.40;;;;;;5047908;28;20463;-79
2022/07/01 09:02:51;;;;;;;0.00;0.00;;;23.40;65.40;;;;;;5048407;28;20033;-78
2022/07/01 09:05:18;;;;;;;0.00;0.00;;;23.10;65.20;;;;;;5047244;28;20549;-79
2022/07/01 09:07:44;;;;;;;0.00;0.00;;;22.90;65.40;;;;;;5046504;28;20021;-78
2022/07/01 09:10:14;;;;;;;;;;;22.70;65.50;;;;;;5047064;28;20443;-78
2022/07/01 09:12:41;;;;;;;0.00;0.00;;;22.60;65.80;;;;;;5047089;28;19939;-78
2022/07/01 09:15:27;;;;;;;0.00;0.00;;;22.50;65.70;;;;;;5049072;28;20033;-80
2022/07/01 09:17:55;;;;;;;0.00;0.00;;;22.10;65.50;;;;;;5049617;28;20044;-78
2022/07/01 09:20:43;;;;;;;0.00;0.00;;;21.80;66.00;;;;;;5048782;28;20029;-78
2022/07/01 09:23:11;;;;;;;0.00;0.00;;;21.90;67.00;;;;;;5051112;28;20154;-79
2022/07/01 09:25:43;;;;;;;0.00;0.00;;;22.40;67.20;;;;;;5052365;28;20570;-78
2022/07/01 09:28:16;;;;;;;0.00;0.00;;;23.20;67.50;;;;;;5051854;28;20038;-80
2022/07/01 09:30:43;;;;;;;0.00;0.00;;;24.80;67.70;;;;;;5053290;28;20025;-79
2022/07/01 09:33:16;;;;;;;0.00;0.00;;;25.70;66.20;;;;;;5053170;28;20032;-79
2022/07/01 09:35:43;;;;;;;0.00;0.00;;;25.70;65.40;;;;;;5052334;28;20070;-79
2022/07/01 09:38:14;;;;;;;0.00;0.00;;;25.50;65.30;;;;;;5052772;28;20033;-80
2022/07/01 09:40:58;;;;;;;0.00;0.00;;;25.10;65.30;;;;;;5052425;28;20029;-77
2022/07/01 09:43:30;;;;;;;0.00;0.00;;;24.80;65.60;;;;;;5039177;28;20416;-80
2022/07/01 09:46:22;;;;;;;0.00;0.00;;;24.80;66.20;;;;;;5052432;28;20104;-79
2022/07/01 09:48:47;;;;;;;0.00;0.00;;;25.20;66.70;;;;;;5050427;28;20091;-79
2022/07/01 09:51:15;;;;;;;0.00;0.00;;;26.10;67.50;;;;;;5050501;28;20029;-77
2022/07/01 09:53:42;;;;;;;0.00;0.00;;;26.60;66.70;;;;;;5049876;28;20041;-78
2022/07/01 09:56:08;;;;;;;0.00;0.00;;;26.70;66.10;;;;;;5050858;28;20029;-77
2022/07/01 09:58:37;;;;;;;0.00;0.00;;;26.60;66.00;;;;;;5052868;28;20032;-77
2022/07/01 10:01:04;;;;;;;0.00;0.00;;;26.60;66.60;;;;;;5051158;28;20025;-76
2022/07/01 10:03:32;;;;;;;0.00;0.00;;;27.40;67.30;;;;;;5051916;28;20486;-76
2022/07/01 10:06:13;;;;;;;0.00;0.00;;;28.10;66.70;;;;;;5052220;28;20021;-77
2022/07/01 10:09:16;;;;;;;0.00;0.00;;;28.20;66.10;;;;;;5052776;28;20021;-73
2022/07/01 10:11:42;;;;;;;0.00;0.00;;;28.30;66.30;;;;;;5051747;28;20040;-81
2022/07/01 10:14:11;;;;;;;0.00;0.00;;;28.40;66.20;;;;;;5052442;28;20026;-75
2022/07/01 10:16:38;;;;;;;0.00;0.00;;;28.30;65.70;;;;;;5052659;28;20025;-75
2022/07/01 10:19:24;;;;;;;0.00;0.00;;;27.90;65.40;;;;;;5051172;28;20395;-75
2022/07/01 10:21:52;;;;;;;0.00;0.00;;;27.30;65.50;;;;;;5051739;28;20063;-80
2022/07/01 10:24:19;;;;;;;0.00;0.00;;;27.60;67.40;;;;;;5051620;28;20033;-78
2022/07/01 10:26:46;;;;;;;0.00;0.00;;;28.40;67.30;;;;;;5051758;28;20036;-79
2022/07/01 10:29:30;;;;;;;0.00;0.00;;;28.80;66.90;;;;;;5051703;28;20093;-76
2022/07/01 10:32:04;;;;;;;0.00;0.00;;;29.70;67.40;;;;;;5051323;28;20102;-80
2022/07/01 10:34:35;;;;;;;0.03;0.03;;;30.50;67.10;;;;;;5051008;28;20108;-77
2022/07/01 10:37:04;;;;;;;0.00;0.00;;;31.10;66.80;;;;;;5051050;28;20053;-76
2022/07/01 10:39:30;;;;;;;0.00;0.00;;;31.60;66.90;;;;;;5051029;28;20028;-78
2022/07/01 10:41:58;;;;;;;0.00;0.00;;;31.30;65.80;;;;;;5050797;28;20075;-75
2022/07/01 10:44:25;;;;;;;0.00;0.00;;;30.80;65.80;;;;;;5050026;28;20510;-80
2022/07/01 10:46:56;;;;;;;0.00;0.00;;;30.00;65.80;;;;;;5050600;28;20459;-78
2022/07/01 10:49:38;;;;;;;0.00;0.00;;;30.00;67.10;;;;;;5049537;28;20082;-75
2022/07/01 10:52:15;;;;;;;0.00;0.00;;;30.30;67.40;;;;;;5050740;28;20025;-77
2022/07/01 10:54:43;;;;;;;0.00;0.00;;;30.20;67.00;;;;;;5050572;28;20025;-75
2022/07/01 10:57:20;;;;;;;0.00;0.00;;;29.70;66.80;;;;;;5050729;28;20105;-76
2022/07/01 10:59:49;;;;;;;0.10;0.10;;;29.10;66.70;;;;;;5049732;28;20025;-76
2022/07/01 11:02:36;;;;;;;0.00;0.00;;;28.70;66.70;;;;;;5051290;28;20101;-80
2022/07/01 11:05:09;;;;;;;0.00;0.00;;;28.30;66.70;;;;;;5049584;28;20025;-81
2022/07/01 11:07:37;;;;;;;0.00;0.00;;;27.70;66.30;;;;;;5053342;28;20062;-79
2022/07/01 11:10:07;;;;;;;0.00;0.00;;;26.90;65.90;;;;;;5049407;28;20027;-81
2022/07/01 11:12:36;;;;;;;0.00;0.00;;;26.30;66.30;;;;;;5032819;28;20103;-80
2022/07/01 11:15:07;;;;;;;0.00;0.00;;;26.10;67.40;;;;;;5032853;28;20021;-80
2022/07/01 11:17:34;;;;;;;0.00;0.00;;;27.10;69.10;;;;;;5050088;28;20040;-82
2022/07/01 11:20:03;;;;;;;0.00;0.00;;;28.20;68.10;;;;;;5032536;28;20100;-82
2022/07/01 11:22:34;;;;;;;0.00;0.00;;;28.20;66.80;;;;;;5030262;28;20033;-80
2022/07/01 11:25:05;;;;;;;0.00;0.00;;;27.90;66.40;;;;;;5049037;28;20029;-77
2022/07/01 11:27:31;;;;;;;0.00;0.00;;;27.50;66.30;;;;;;5048673;28;20111;-79
2022/07/01 11:29:59;;;;;;;0.00;0.00;;;27.00;66.20;;;;;;5048701;28;20408;-79
2022/07/01 11:32:40;;;;;;;0.00;0.00;;;26.60;66.40;;;;;;5047929;28;20052;-75
2022/07/01 11:40:36;;;;;;;0.00;0.00;;;25.60;66.30;;;;;;5049124;28;20036;-76
2022/07/01 11:43:02;;;;;;;0.00;0.00;;;25.10;66.30;;;;;;5047303;28;20029;-75
2022/07/01 11:45:28;;;;;;;0.00;0.00;;;24.90;66.50;;;;;;5048074;28;20029;-76
2022/07/01 11:47:54;;;;;;;0.00;0.00;;;24.80;66.70;;;;;;5048254;28;20051;-76
2022/07/01 11:50:21;;;;;;;0.00;0.00;;;24.80;66.70;;;;;;5049204;28;20443;-75
2022/07/01 11:52:46;;;;;;;0.00;0.00;;;25.10;67.10;;;;;;5049206;28;20113;-78
2022/07/01 11:55:12;;;;;;;0.00;0.00;;;25.30;66.90;;;;;;5047827;28;20116;-79
2022/07/01 11:57:38;;;;;;;0.00;0.00;;;25.80;67.00;;;;;;5031735;28;20029;-80
2022/07/01 12:00:12;;;;;;;0.00;0.00;;;26.20;66.70;;;;;;5048238;28;20455;-82
2022/07/01 12:02:38;;;;;;;0.00;0.00;;;26.40;66.20;;;;;;5030609;28;20033;-77
2022/07/01 12:05:05;;;;;;;0.00;0.00;;;26.60;66.50;;;;;;5048148;28;20029;-76
2022/07/01 12:07:34;;;;;;;0.00;0.00;;;26.90;66.30;;;;;;5048682;28;20074;-79
2022/07/01 12:10:01;;;;;;;0.00;0.00;;;27.00;66.20;;;;;;5048327;28;20040;-76
2022/07/01 12:12:27;;;;;;;0.00;0.00;;;26.80;65.40;;;;;;5047873;28;20079;-77
2022/07/01 12:14:58;;;;;;;0.00;0.00;;;26.40;65.20;;;;;;5047899;28;20447;-78
2022/07/01 12:17:25;;;;;;;0.00;0.00;;;26.10;65.50;;;;;;5049134;28;20033;-79
2022/07/01 12:19:52;;;;;;;0.00;0.00;;;25.80;65.70;;;;;;5049589;28;20063;-80
2022/07/01 12:22:25;;;;;;;0.00;0.00;;;25.80;66.20;;;;;;5049456;28;20025;-79
2022/07/01 12:24:53;;;;;;;0.00;0.00;;;25.80;65.90;;;;;;5049354;28;20042;-78
2022/07/01 12:27:22;;;;;;;0.00;0.00;;;25.70;65.60;;;;;;5045163;28;20125;-78
2022/07/01 12:29:49;;;;;;;0.00;0.00;;;25.40;65.70;;;;;;5048968;28;20079;-77
2022/07/01 12:32:29;;;;;;;0.00;0.00;;;25.20;65.70;;;;;;5046550;28;20056;-79
2022/07/01 12:34:57;;;;;;;0.00;0.00;;;25.00;66.00;;;;;;5048000;28;20095;-76
2022/07/01 12:37:32;;;;;;;0.00;0.00;;;24.90;65.90;;;;;;5047187;28;20379;-78
2022/07/01 12:40:19;;;;;;;0.00;0.00;;;24.80;65.70;;;;;;5048974;28;20036;-78
2022/07/01 12:42:45;;;;;;;0.00;0.00;;;24.60;65.80;;;;;;5046847;28;20263;-77
2022/07/01 12:45:14;;;;;;;0.00;0.00;;;24.50;66.40;;;;;;5048404;28;20039;-77
2022/07/01 12:47:57;;;;;;;0.00;0.00;;;24.70;66.40;;;;;;5048276;28;20148;-79
2022/07/01 12:50:33;;;;;;;0.00;0.00;;;24.70;65.70;;;;;;5047658;28;20494;-76
2022/07/01 12:53:07;;;;;;;0.00;0.00;;;24.50;65.30;;;;;;5049052;28;20472;-78
2022/07/01 12:55:40;;;;;;;0.00;0.00;;;24.30;65.20;;;;;;5049353;28;20494;-76
2022/07/01 12:58:10;;;;;;;0.00;0.00;;;24.00;65.20;;;;;;5048410;28;20028;-80
2022/07/01 13:00:39;;;;;;;0.00;0.00;;;23.60;65.20;;;;;;5048004;28;20029;-76
2022/07/01 13:03:06;;;;;;;0.00;0.00;;;23.30;65.40;;;;;;5048474;28;20029;-76
2022/07/01 13:05:34;;;;;;;0.00;0.00;;;23.00;65.50;;;;;;5047446;28;20019;-75
2022/07/01 13:08:00;;;;;;;0.00;0.00;;;22.80;65.60;;;;;;5047130;28;20048;-77
2022/07/01 13:10:26;;;;;;;0.00;0.00;;;22.50;65.30;;;;;;5047568;28;20138;-79